sensor_id;sensor_type;location;lat;lon;timestamp;P1;durP1;ratioP1;P2;durP2;ratioP2
1569;SDS011;778;50.120;8.698;2023-05-07T00:00:28;2.93;;;2.63;;
1569;SDS011;778;50.120;8.698;2023-05-07T00:02:56;2.87;;;2.67;;
1569;SDS011;778;50.120;8.698;2023-05-07T00:05:25;2.93;;;2.67;;
1569;SDS011;778;50.120;8.698;2023-05-07T00:07:53;2.93;;;2.47;;
1569;SDS011;778;50.120;8.698;2023-05-07T00:10:25;5.60;;;2.80;;
1569;SDS011;778;50.120;8.698;2023-05-07T00:12:54;3.03;;;2.60;;
1569;SDS011;778;50.120;8.698;2023-05-07T00:15:22;2.23;;;2.13;;
1569;SDS011;778;50.120;8.698;2023-05-07T00:17:52;4.43;;;2.43;;
1569;SDS011;778;50.120;8.698;2023-05-07T00:20:21;3.20;;;2.87;;
1569;SDS011;778;50.120;8.698;2023-05-07T00:22:49;2.73;;;2.53;;
1569;SDS011;778;50.120;8.698;2023-05-07T00:25:18;6.57;;;3.37;;
1569;SDS011;778;50.120;8.698;2023-05-07T00:27:46;2.93;;;2.73;;
1569;SDS011;778;50.120;8.698;2023-05-07T00:30:15;2.50;;;2.30;;
1569;SDS011;778;50.120;8.698;2023-05-07T00:32:43;4.10;;;2.50;;
1569;SDS011;778;50.120;8.698;2023-05-07T00:35:13;5.00;;;2.63;;
1569;SDS011;778;50.120;8.698;2023-05-07T00:37:42;2.70;;;2.50;;
1569;SDS011;778;50.120;8.698;2023-05-07T00:40:11;4.70;;;2.73;;
1569;SDS011;778;50.120;8.698;2023-05-07T00:42:39;3.33;;;2.90;;
1569;SDS011;778;50.120;8.698;2023-05-07T00:45:08;3.60;;;2.97;;
1569;SDS011;778;50.120;8.698;2023-05-07T00:47:37;2.80;;;2.50;;
1569;SDS011;778;50.120;8.698;2023-05-07T00:50:06;3.90;;;2.63;;
1569;SDS011;778;50.120;8.698;2023-05-07T00:52:38;3.10;;;2.80;;
1569;SDS011;778;50.120;8.698;2023-05-07T00:55:08;2.63;;;2.37;;
1569;SDS011;778;50.120;8.698;2023-05-07T00:57:37;3.37;;;2.70;;
1569;SDS011;778;50.120;8.698;2023-05-07T01:00:08;4.50;;;2.73;;
1569;SDS011;778;50.120;8.698;2023-05-07T01:02:39;3.30;;;2.83;;
1569;SDS011;778;50.120;8.698;2023-05-07T01:05:09;3.33;;;3.03;;
1569;SDS011;778;50.120;8.698;2023-05-07T01:07:42;3.53;;;2.43;;
1569;SDS011;778;50.120;8.698;2023-05-07T01:10:11;3.10;;;2.90;;
1569;SDS011;778;50.120;8.698;2023-05-07T01:12:40;3.17;;;2.97;;
1569;SDS011;778;50.120;8.698;2023-05-07T01:15:09;2.90;;;2.70;;
1569;SDS011;778;50.120;8.698;2023-05-07T01:17:38;2.93;;;2.40;;
1569;SDS011;778;50.120;8.698;2023-05-07T01:20:21;2.97;;;2.77;;
1569;SDS011;778;50.120;8.698;2023-05-07T01:22:54;3.10;;;2.90;;
1569;SDS011;778;50.120;8.698;2023-05-07T01:25:24;2.60;;;2.30;;
1569;SDS011;778;50.120;8.698;2023-05-07T01:27:56;3.90;;;3.13;;
1569;SDS011;778;50.120;8.698;2023-05-07T01:30:28;3.10;;;2.80;;
1569;SDS011;778;50.120;8.698;2023-05-07T01:33:01;2.60;;;2.40;;
1569;SDS011;778;50.120;8.698;2023-05-07T01:35:34;4.70;;;3.03;;
1569;SDS011;778;50.120;8.698;2023-05-07T01:38:08;3.33;;;2.70;;
1569;SDS011;778;50.120;8.698;2023-05-07T01:40:36;2.87;;;2.43;;
1569;SDS011;778;50.120;8.698;2023-05-07T01:43:05;2.60;;;2.40;;
1569;SDS011;778;50.120;8.698;2023-05-07T01:45:35;3.97;;;3.60;;
1569;SDS011;778;50.120;8.698;2023-05-07T01:48:06;2.73;;;2.53;;
1569;SDS011;778;50.120;8.698;2023-05-07T01:50:36;2.60;;;2.40;;
1569;SDS011;778;50.120;8.698;2023-05-07T01:53:06;3.90;;;3.23;;
1569;SDS011;778;50.120;8.698;2023-05-07T01:55:36;2.57;;;2.37;;
1569;SDS011;778;50.120;8.698;2023-05-07T01:58:04;3.27;;;3.07;;
1569;SDS011;778;50.120;8.698;2023-05-07T02:00:33;3.10;;;2.53;;
1569;SDS011;778;50.120;8.698;2023-05-07T02:03:01;2.60;;;2.40;;
1569;SDS011;778;50.120;8.698;2023-05-07T02:05:44;3.63;;;2.70;;
1569;SDS011;778;50.120;8.698;2023-05-07T02:08:21;3.00;;;2.70;;
1569;SDS011;778;50.120;8.698;2023-05-07T02:10:50;2.80;;;2.60;;
1569;SDS011;778;50.120;8.698;2023-05-07T02:13:20;2.97;;;2.77;;
1569;SDS011;778;50.120;8.698;2023-05-07T02:15:50;2.60;;;2.40;;
1569;SDS011;778;50.120;8.698;2023-05-07T02:18:21;2.93;;;2.73;;
1569;SDS011;778;50.120;8.698;2023-05-07T02:20:49;4.00;;;3.30;;
1569;SDS011;778;50.120;8.698;2023-05-07T02:23:17;4.60;;;3.13;;
1569;SDS011;778;50.120;8.698;2023-05-07T02:25:47;4.40;;;2.70;;
1569;SDS011;778;50.120;8.698;2023-05-07T02:28:16;2.90;;;2.70;;
1569;SDS011;778;50.120;8.698;2023-05-07T02:30:58;4.27;;;3.87;;
1569;SDS011;778;50.120;8.698;2023-05-07T02:33:28;3.50;;;3.20;;
1569;SDS011;778;50.120;8.698;2023-05-07T02:36:04;3.37;;;3.10;;
1569;SDS011;778;50.120;8.698;2023-05-07T02:38:36;2.93;;;2.73;;
1569;SDS011;778;50.120;8.698;2023-05-07T02:41:06;3.40;;;3.13;;
1569;SDS011;778;50.120;8.698;2023-05-07T02:43:36;2.93;;;2.57;;
1569;SDS011;778;50.120;8.698;2023-05-07T02:46:05;4.47;;;3.30;;
1569;SDS011;778;50.120;8.698;2023-05-07T02:48:39;4.30;;;2.90;;
1569;SDS011;778;50.120;8.698;2023-05-07T02:51:08;3.70;;;3.10;;
1569;SDS011;778;50.120;8.698;2023-05-07T02:53:38;4.07;;;3.77;;
1569;SDS011;778;50.120;8.698;2023-05-07T02:56:08;3.33;;;2.77;;
1569;SDS011;778;50.120;8.698;2023-05-07T02:58:37;3.53;;;3.23;;
1569;SDS011;778;50.120;8.698;2023-05-07T03:01:07;2.83;;;2.63;;
1569;SDS011;778;50.120;8.698;2023-05-07T03:03:58;2.77;;;2.57;;
1569;SDS011;778;50.120;8.698;2023-05-07T03:06:26;3.40;;;3.00;;
1569;SDS011;778;50.120;8.698;2023-05-07T03:08:54;2.97;;;2.67;;
1569;SDS011;778;50.120;8.698;2023-05-07T03:11:24;4.60;;;2.80;;
1569;SDS011;778;50.120;8.698;2023-05-07T03:13:53;3.53;;;3.23;;
1569;SDS011;778;50.120;8.698;2023-05-07T03:16:21;4.30;;;2.70;;
1569;SDS011;778;50.120;8.698;2023-05-07T03:18:50;2.93;;;2.53;;
1569;SDS011;778;50.120;8.698;2023-05-07T03:21:19;2.80;;;2.60;;
1569;SDS011;778;50.120;8.698;2023-05-07T03:23:47;2.40;;;2.30;;
1569;SDS011;778;50.120;8.698;2023-05-07T03:26:15;3.07;;;2.77;;
1569;SDS011;778;50.120;8.698;2023-05-07T03:28:45;2.97;;;2.67;;
1569;SDS011;778;50.120;8.698;2023-05-07T03:31:15;2.73;;;2.50;;
1569;SDS011;778;50.120;8.698;2023-05-07T03:33:52;3.70;;;3.40;;
1569;SDS011;778;50.120;8.698;2023-05-07T03:36:23;2.60;;;2.40;;
1569;SDS011;778;50.120;8.698;2023-05-07T03:38:54;2.80;;;2.53;;
1569;SDS011;778;50.120;8.698;2023-05-07T03:41:25;3.47;;;2.53;;
1569;SDS011;778;50.120;8.698;2023-05-07T03:43:55;3.57;;;2.93;;
1569;SDS011;778;50.120;8.698;2023-05-07T03:46:23;3.63;;;3.33;;
1569;SDS011;778;50.120;8.698;2023-05-07T03:48:53;2.80;;;2.60;;
1569;SDS011;778;50.120;8.698;2023-05-07T03:51:22;3.67;;;3.27;;
1569;SDS011;778;50.120;8.698;2023-05-07T03:53:51;3.57;;;2.90;;
1569;SDS011;778;50.120;8.698;2023-05-07T03:56:21;3.80;;;3.50;;
1569;SDS011;778;50.120;8.698;2023-05-07T03:58:55;2.97;;;2.77;;
1569;SDS011;778;50.120;8.698;2023-05-07T04:01:24;3.20;;;2.93;;
1569;SDS011;778;50.120;8.698;2023-05-07T04:03:53;4.23;;;3.10;;
1569;SDS011;778;50.120;8.698;2023-05-07T04:06:23;3.60;;;3.30;;
1569;SDS011;778;50.120;8.698;2023-05-07T04:08:52;3.57;;;3.03;;
1569;SDS011;778;50.120;8.698;2023-05-07T04:11:20;3.90;;;2.87;;
1569;SDS011;778;50.120;8.698;2023-05-07T04:13:49;3.23;;;2.80;;
1569;SDS011;778;50.120;8.698;2023-05-07T04:16:22;3.70;;;3.20;;
1569;SDS011;778;50.120;8.698;2023-05-07T04:18:50;7.27;;;3.30;;
1569;SDS011;778;50.120;8.698;2023-05-07T04:21:19;3.47;;;3.17;;
1569;SDS011;778;50.120;8.698;2023-05-07T04:23:50;6.30;;;3.70;;
1569;SDS011;778;50.120;8.698;2023-05-07T04:26:18;4.07;;;2.67;;
1569;SDS011;778;50.120;8.698;2023-05-07T04:28:47;4.20;;;3.80;;
1569;SDS011;778;50.120;8.698;2023-05-07T04:31:17;3.80;;;3.33;;
1569;SDS011;778;50.120;8.698;2023-05-07T04:33:50;3.40;;;3.10;;
1569;SDS011;778;50.120;8.698;2023-05-07T04:36:19;3.73;;;3.43;;
1569;SDS011;778;50.120;8.698;2023-05-07T04:38:54;5.70;;;4.30;;
1569;SDS011;778;50.120;8.698;2023-05-07T04:41:23;4.37;;;3.97;;
1569;SDS011;778;50.120;8.698;2023-05-07T04:43:51;3.27;;;2.97;;
1569;SDS011;778;50.120;8.698;2023-05-07T04:46:22;4.33;;;4.00;;
1569;SDS011;778;50.120;8.698;2023-05-07T04:48:54;3.20;;;2.90;;
1569;SDS011;778;50.120;8.698;2023-05-07T04:51:23;4.73;;;3.60;;
1569;SDS011;778;50.120;8.698;2023-05-07T04:53:52;3.43;;;3.13;;
1569;SDS011;778;50.120;8.698;2023-05-07T04:56:20;4.40;;;2.87;;
1569;SDS011;778;50.120;8.698;2023-05-07T04:58:49;5.33;;;3.80;;
1569;SDS011;778;50.120;8.698;2023-05-07T05:01:20;4.50;;;4.10;;
1569;SDS011;778;50.120;8.698;2023-05-07T05:03:48;3.80;;;3.50;;
1569;SDS011;778;50.120;8.698;2023-05-07T05:06:20;4.00;;;3.70;;
1569;SDS011;778;50.120;8.698;2023-05-07T05:08:49;3.70;;;3.30;;
1569;SDS011;778;50.120;8.698;2023-05-07T05:11:18;4.00;;;3.70;;
1569;SDS011;778;50.120;8.698;2023-05-07T05:13:47;5.60;;;4.17;;
1569;SDS011;778;50.120;8.698;2023-05-07T05:16:19;5.30;;;3.87;;
1569;SDS011;778;50.120;8.698;2023-05-07T05:18:48;5.57;;;5.03;;
1569;SDS011;778;50.120;8.698;2023-05-07T05:21:19;4.03;;;3.63;;
1569;SDS011;778;50.120;8.698;2023-05-07T05:23:52;4.07;;;3.53;;
1569;SDS011;778;50.120;8.698;2023-05-07T05:26:23;3.90;;;3.60;;
1569;SDS011;778;50.120;8.698;2023-05-07T05:28:52;3.50;;;3.20;;
1569;SDS011;778;50.120;8.698;2023-05-07T05:31:23;4.00;;;2.90;;
1569;SDS011;778;50.120;8.698;2023-05-07T05:33:51;3.20;;;3.00;;
1569;SDS011;778;50.120;8.698;2023-05-07T05:36:21;3.43;;;3.13;;
1569;SDS011;778;50.120;8.698;2023-05-07T05:38:53;3.60;;;3.30;;
1569;SDS011;778;50.120;8.698;2023-05-07T05:41:22;4.60;;;4.20;;
1569;SDS011;778;50.120;8.698;2023-05-07T05:43:50;4.73;;;4.33;;
1569;SDS011;778;50.120;8.698;2023-05-07T05:46:19;4.87;;;4.30;;
1569;SDS011;778;50.120;8.698;2023-05-07T05:48:49;5.90;;;3.80;;
1569;SDS011;778;50.120;8.698;2023-05-07T05:51:18;5.17;;;4.73;;
1569;SDS011;778;50.120;8.698;2023-05-07T05:53:49;5.27;;;4.07;;
1569;SDS011;778;50.120;8.698;2023-05-07T05:56:18;5.13;;;4.23;;
1569;SDS011;778;50.120;8.698;2023-05-07T05:58:47;4.27;;;3.90;;
1569;SDS011;778;50.120;8.698;2023-05-07T06:01:16;6.00;;;5.33;;
1569;SDS011;778;50.120;8.698;2023-05-07T06:03:47;5.47;;;5.07;;
1569;SDS011;778;50.120;8.698;2023-05-07T06:06:16;5.33;;;4.93;;
1569;SDS011;778;50.120;8.698;2023-05-07T06:08:46;4.87;;;4.07;;
1569;SDS011;778;50.120;8.698;2023-05-07T06:11:20;8.13;;;4.40;;
1569;SDS011;778;50.120;8.698;2023-05-07T06:13:49;4.37;;;4.07;;
1569;SDS011;778;50.120;8.698;2023-05-07T06:16:17;4.13;;;3.73;;
1569;SDS011;778;50.120;8.698;2023-05-07T06:18:47;8.30;;;5.40;;
1569;SDS011;778;50.120;8.698;2023-05-07T06:21:15;3.73;;;3.43;;
1569;SDS011;778;50.120;8.698;2023-05-07T06:23:44;4.37;;;3.70;;
1569;SDS011;778;50.120;8.698;2023-05-07T06:26:14;4.20;;;3.80;;
1569;SDS011;778;50.120;8.698;2023-05-07T06:28:45;5.10;;;4.70;;
1569;SDS011;778;50.120;8.698;2023-05-07T06:31:15;4.10;;;3.73;;
1569;SDS011;778;50.120;8.698;2023-05-07T06:33:57;4.17;;;3.87;;
1569;SDS011;778;50.120;8.698;2023-05-07T06:36:31;6.83;;;4.53;;
1569;SDS011;778;50.120;8.698;2023-05-07T06:39:05;4.07;;;3.50;;
1569;SDS011;778;50.120;8.698;2023-05-07T06:41:36;3.50;;;3.20;;
1569;SDS011;778;50.120;8.698;2023-05-07T06:44:13;4.10;;;3.80;;
1569;SDS011;778;50.120;8.698;2023-05-07T06:46:46;3.63;;;3.33;;
1569;SDS011;778;50.120;8.698;2023-05-07T06:49:15;4.50;;;4.10;;
1569;SDS011;778;50.120;8.698;2023-05-07T06:51:44;4.00;;;3.70;;
1569;SDS011;778;50.120;8.698;2023-05-07T06:54:12;3.90;;;3.60;;
1569;SDS011;778;50.120;8.698;2023-05-07T06:56:44;5.40;;;4.20;;
1569;SDS011;778;50.120;8.698;2023-05-07T06:59:12;4.33;;;3.83;;
1569;SDS011;778;50.120;8.698;2023-05-07T07:01:41;3.90;;;3.70;;
1569;SDS011;778;50.120;8.698;2023-05-07T07:04:10;4.10;;;3.63;;
1569;SDS011;778;50.120;8.698;2023-05-07T07:06:41;5.47;;;4.53;;
1569;SDS011;778;50.120;8.698;2023-05-07T07:09:12;4.40;;;4.10;;
1569;SDS011;778;50.120;8.698;2023-05-07T07:11:40;4.50;;;3.43;;
1569;SDS011;778;50.120;8.698;2023-05-07T07:14:10;4.80;;;4.37;;
1569;SDS011;778;50.120;8.698;2023-05-07T07:16:44;4.80;;;4.40;;
1569;SDS011;778;50.120;8.698;2023-05-07T07:19:14;4.20;;;3.90;;
1569;SDS011;778;50.120;8.698;2023-05-07T07:21:45;4.57;;;4.23;;
1569;SDS011;778;50.120;8.698;2023-05-07T07:24:14;4.13;;;3.83;;
1569;SDS011;778;50.120;8.698;2023-05-07T07:26:50;4.70;;;4.40;;
1569;SDS011;778;50.120;8.698;2023-05-07T07:29:22;4.57;;;4.20;;
1569;SDS011;778;50.120;8.698;2023-05-07T07:31:53;4.30;;;4.00;;
1569;SDS011;778;50.120;8.698;2023-05-07T07:34:22;5.27;;;4.50;;
1569;SDS011;778;50.120;8.698;2023-05-07T07:36:50;4.57;;;4.10;;
1569;SDS011;778;50.120;8.698;2023-05-07T07:39:19;4.37;;;4.07;;
1569;SDS011;778;50.120;8.698;2023-05-07T07:41:51;4.57;;;4.20;;
1569;SDS011;778;50.120;8.698;2023-05-07T07:44:22;5.20;;;4.77;;
1569;SDS011;778;50.120;8.698;2023-05-07T07:46:56;4.23;;;3.93;;
1569;SDS011;778;50.120;8.698;2023-05-07T07:49:26;6.60;;;3.90;;
1569;SDS011;778;50.120;8.698;2023-05-07T07:51:57;4.30;;;4.00;;
1569;SDS011;778;50.120;8.698;2023-05-07T07:54:27;4.60;;;4.20;;
1569;SDS011;778;50.120;8.698;2023-05-07T07:56:57;5.50;;;5.10;;
1569;SDS011;778;50.120;8.698;2023-05-07T07:59:28;5.87;;;3.70;;
1569;SDS011;778;50.120;8.698;2023-05-07T08:01:56;5.33;;;4.93;;
1569;SDS011;778;50.120;8.698;2023-05-07T08:04:27;4.37;;;4.07;;
1569;SDS011;778;50.120;8.698;2023-05-07T08:07:00;5.00;;;4.60;;
1569;SDS011;778;50.120;8.698;2023-05-07T08:09:30;4.27;;;3.97;;
1569;SDS011;778;50.120;8.698;2023-05-07T08:12:01;5.20;;;4.70;;
1569;SDS011;778;50.120;8.698;2023-05-07T08:14:33;4.80;;;4.30;;
1569;SDS011;778;50.120;8.698;2023-05-07T08:17:04;5.40;;;4.13;;
1569;SDS011;778;50.120;8.698;2023-05-07T08:19:33;4.10;;;3.80;;
1569;SDS011;778;50.120;8.698;2023-05-07T08:22:03;4.77;;;4.27;;
1569;SDS011;778;50.120;8.698;2023-05-07T08:24:33;5.00;;;4.10;;
1569;SDS011;778;50.120;8.698;2023-05-07T08:27:01;4.80;;;4.50;;
1569;SDS011;778;50.120;8.698;2023-05-07T08:29:30;4.53;;;4.23;;
1569;SDS011;778;50.120;8.698;2023-05-07T08:32:01;4.67;;;4.27;;
1569;SDS011;778;50.120;8.698;2023-05-07T08:34:29;4.40;;;4.10;;
1569;SDS011;778;50.120;8.698;2023-05-07T08:37:00;5.30;;;4.90;;
1569;SDS011;778;50.120;8.698;2023-05-07T08:39:31;4.70;;;4.30;;
1569;SDS011;778;50.120;8.698;2023-05-07T08:41:59;5.33;;;4.77;;
1569;SDS011;778;50.120;8.698;2023-05-07T08:44:32;5.10;;;4.70;;
1569;SDS011;778;50.120;8.698;2023-05-07T08:47:04;5.27;;;4.80;;
1569;SDS011;778;50.120;8.698;2023-05-07T08:49:36;5.00;;;4.67;;
1569;SDS011;778;50.120;8.698;2023-05-07T08:52:06;4.53;;;4.13;;
1569;SDS011;778;50.120;8.698;2023-05-07T08:54:36;5.10;;;4.70;;
1569;SDS011;778;50.120;8.698;2023-05-07T08:57:08;5.20;;;4.80;;
1569;SDS011;778;50.120;8.698;2023-05-07T08:59:36;5.20;;;4.80;;
1569;SDS011;778;50.120;8.698;2023-05-07T09:02:06;5.57;;;4.70;;
1569;SDS011;778;50.120;8.698;2023-05-07T09:04:37;5.20;;;4.80;;
1569;SDS011;778;50.120;8.698;2023-05-07T09:07:07;5.23;;;4.83;;
1569;SDS011;778;50.120;8.698;2023-05-07T09:09:40;4.90;;;4.50;;
1569;SDS011;778;50.120;8.698;2023-05-07T09:12:08;5.10;;;4.80;;
1569;SDS011;778;50.120;8.698;2023-05-07T09:14:37;6.47;;;4.50;;
1569;SDS011;778;50.120;8.698;2023-05-07T09:17:07;4.80;;;4.40;;
1569;SDS011;778;50.120;8.698;2023-05-07T09:19:36;4.87;;;4.47;;
1569;SDS011;778;50.120;8.698;2023-05-07T09:22:06;4.90;;;4.50;;
1569;SDS011;778;50.120;8.698;2023-05-07T09:24:48;4.67;;;4.37;;
1569;SDS011;778;50.120;8.698;2023-05-07T09:27:21;4.43;;;4.03;;
1569;SDS011;778;50.120;8.698;2023-05-07T09:29:49;4.97;;;4.03;;
1569;SDS011;778;50.120;8.698;2023-05-07T09:32:20;4.47;;;4.17;;
1569;SDS011;778;50.120;8.698;2023-05-07T09:34:48;6.53;;;4.93;;
1569;SDS011;778;50.120;8.698;2023-05-07T09:37:20;5.90;;;4.57;;
1569;SDS011;778;50.120;8.698;2023-05-07T09:39:49;5.70;;;4.83;;
1569;SDS011;778;50.120;8.698;2023-05-07T09:42:23;4.70;;;4.40;;
1569;SDS011;778;50.120;8.698;2023-05-07T09:44:55;4.73;;;4.33;;
1569;SDS011;778;50.120;8.698;2023-05-07T09:47:29;4.60;;;4.30;;
1569;SDS011;778;50.120;8.698;2023-05-07T09:50:00;4.90;;;4.50;;
1569;SDS011;778;50.120;8.698;2023-05-07T09:52:33;4.47;;;4.17;;
1569;SDS011;778;50.120;8.698;2023-05-07T09:55:05;4.53;;;4.23;;
1569;SDS011;778;50.120;8.698;2023-05-07T09:57:35;4.60;;;4.20;;
1569;SDS011;778;50.120;8.698;2023-05-07T10:00:07;5.63;;;5.23;;
1569;SDS011;778;50.120;8.698;2023-05-07T10:02:47;4.93;;;4.63;;
1569;SDS011;778;50.120;8.698;2023-05-07T10:05:25;5.23;;;4.33;;
1569;SDS011;778;50.120;8.698;2023-05-07T10:07:57;4.70;;;4.40;;
1569;SDS011;778;50.120;8.698;2023-05-07T10:10:29;4.53;;;4.23;;
1569;SDS011;778;50.120;8.698;2023-05-07T10:13:01;4.00;;;3.60;;
1569;SDS011;778;50.120;8.698;2023-05-07T10:15:33;5.13;;;4.73;;
1569;SDS011;778;50.120;8.698;2023-05-07T10:18:04;4.63;;;4.23;;
1569;SDS011;778;50.120;8.698;2023-05-07T10:20:36;3.93;;;3.63;;
1569;SDS011;778;50.120;8.698;2023-05-07T10:23:08;5.17;;;4.77;;
1569;SDS011;778;50.120;8.698;2023-05-07T10:25:46;6.13;;;5.00;;
1569;SDS011;778;50.120;8.698;2023-05-07T10:28:20;5.00;;;4.60;;
1569;SDS011;778;50.120;8.698;2023-05-07T10:30:56;4.83;;;4.43;;
1569;SDS011;778;50.120;8.698;2023-05-07T10:33:42;5.47;;;5.00;;
1569;SDS011;778;50.120;8.698;2023-05-07T10:36:14;5.30;;;5.00;;
1569;SDS011;778;50.120;8.698;2023-05-07T10:38:43;4.87;;;4.53;;
1569;SDS011;778;50.120;8.698;2023-05-07T10:41:12;5.47;;;4.97;;
1569;SDS011;778;50.120;8.698;2023-05-07T10:43:44;4.80;;;4.40;;
1569;SDS011;778;50.120;8.698;2023-05-07T10:46:22;4.67;;;4.37;;
1569;SDS011;778;50.120;8.698;2023-05-07T10:49:09;5.60;;;5.20;;
1569;SDS011;778;50.120;8.698;2023-05-07T10:52:11;4.60;;;4.30;;
1569;SDS011;778;50.120;8.698;2023-05-07T10:55:21;5.03;;;4.63;;
1569;SDS011;778;50.120;8.698;2023-05-07T11:01:30;5.87;;;5.47;;
1569;SDS011;778;50.120;8.698;2023-05-07T11:04:25;5.80;;;5.40;;
1569;SDS011;778;50.120;8.698;2023-05-07T11:07:25;5.13;;;4.80;;
1569;SDS011;778;50.120;8.698;2023-05-07T11:10:02;4.40;;;4.10;;
1569;SDS011;778;50.120;8.698;2023-05-07T11:12:55;4.80;;;4.27;;
1569;SDS011;778;50.120;8.698;2023-05-07T11:15:34;4.67;;;4.37;;
1569;SDS011;778;50.120;8.698;2023-05-07T11:18:42;5.33;;;4.60;;
1569;SDS011;778;50.120;8.698;2023-05-07T11:21:36;4.33;;;3.93;;
1569;SDS011;778;50.120;8.698;2023-05-07T11:24:26;4.00;;;3.70;;
1569;SDS011;778;50.120;8.698;2023-05-07T11:27:02;5.33;;;3.63;;
1569;SDS011;778;50.120;8.698;2023-05-07T11:29:31;3.60;;;3.40;;
1569;SDS011;778;50.120;8.698;2023-05-07T11:32:07;3.67;;;3.47;;
1569;SDS011;778;50.120;8.698;2023-05-07T11:34:42;3.57;;;3.27;;
1569;SDS011;778;50.120;8.698;2023-05-07T11:37:13;6.10;;;3.30;;
1569;SDS011;778;50.120;8.698;2023-05-07T11:40:01;3.80;;;3.50;;
1569;SDS011;778;50.120;8.698;2023-05-07T11:42:33;3.30;;;3.00;;
1569;SDS011;778;50.120;8.698;2023-05-07T11:45:04;3.10;;;2.90;;
1569;SDS011;778;50.120;8.698;2023-05-07T11:47:34;7.07;;;3.67;;
1569;SDS011;778;50.120;8.698;2023-05-07T11:50:05;3.40;;;3.20;;
1569;SDS011;778;50.120;8.698;2023-05-07T11:52:38;3.00;;;2.80;;
1569;SDS011;778;50.120;8.698;2023-05-07T11:55:07;3.40;;;3.20;;
1569;SDS011;778;50.120;8.698;2023-05-07T11:57:36;3.20;;;2.90;;
1569;SDS011;778;50.120;8.698;2023-05-07T12:00:06;2.77;;;2.57;;
1569;SDS011;778;50.120;8.698;2023-05-07T12:02:39;2.90;;;2.70;;
1569;SDS011;778;50.120;8.698;2023-05-07T12:05:08;2.93;;;2.73;;
1569;SDS011;778;50.120;8.698;2023-05-07T12:07:39;2.80;;;2.60;;
1569;SDS011;778;50.120;8.698;2023-05-07T12:10:07;5.30;;;2.77;;
1569;SDS011;778;50.120;8.698;2023-05-07T12:12:39;5.03;;;2.23;;
1569;SDS011;778;50.120;8.698;2023-05-07T12:15:08;2.47;;;2.20;;
1569;SDS011;778;50.120;8.698;2023-05-07T12:17:38;2.37;;;2.17;;
1569;SDS011;778;50.120;8.698;2023-05-07T12:20:07;2.90;;;2.10;;
1569;SDS011;778;50.120;8.698;2023-05-07T12:22:39;3.33;;;3.03;;
1569;SDS011;778;50.120;8.698;2023-05-07T12:25:08;3.07;;;2.60;;
1569;SDS011;778;50.120;8.698;2023-05-07T12:27:37;9.70;;;4.37;;
1569;SDS011;778;50.120;8.698;2023-05-07T12:30:09;2.83;;;2.63;;
1569;SDS011;778;50.120;8.698;2023-05-07T12:32:39;2.93;;;2.63;;
1569;SDS011;778;50.120;8.698;2023-05-07T12:35:08;3.40;;;2.60;;
1569;SDS011;778;50.120;8.698;2023-05-07T12:37:38;3.60;;;3.00;;
1569;SDS011;778;50.120;8.698;2023-05-07T12:40:08;3.37;;;3.10;;
1569;SDS011;778;50.120;8.698;2023-05-07T12:42:39;3.40;;;3.10;;
1569;SDS011;778;50.120;8.698;2023-05-07T12:45:09;3.43;;;3.10;;
1569;SDS011;778;50.120;8.698;2023-05-07T12:47:38;3.67;;;2.77;;
1569;SDS011;778;50.120;8.698;2023-05-07T12:50:07;5.10;;;2.80;;
1569;SDS011;778;50.120;8.698;2023-05-07T12:52:36;2.40;;;2.13;;
1569;SDS011;778;50.120;8.698;2023-05-07T12:55:07;5.10;;;3.00;;
1569;SDS011;778;50.120;8.698;2023-05-07T12:57:37;3.73;;;3.00;;
1569;SDS011;778;50.120;8.698;2023-05-07T13:00:07;2.67;;;2.43;;
1569;SDS011;778;50.120;8.698;2023-05-07T13:02:37;2.80;;;2.50;;
1569;SDS011;778;50.120;8.698;2023-05-07T13:05:07;3.33;;;3.03;;
1569;SDS011;778;50.120;8.698;2023-05-07T13:07:36;4.33;;;3.53;;
1569;SDS011;778;50.120;8.698;2023-05-07T13:10:08;2.87;;;2.67;;
1569;SDS011;778;50.120;8.698;2023-05-07T13:12:37;4.03;;;3.07;;
1569;SDS011;778;50.120;8.698;2023-05-07T13:15:06;2.90;;;2.40;;
1569;SDS011;778;50.120;8.698;2023-05-07T13:17:35;3.50;;;2.77;;
1569;SDS011;778;50.120;8.698;2023-05-07T13:20:04;3.17;;;2.90;;
1569;SDS011;778;50.120;8.698;2023-05-07T13:22:34;2.63;;;2.43;;
1569;SDS011;778;50.120;8.698;2023-05-07T13:25:05;2.70;;;2.50;;
1569;SDS011;778;50.120;8.698;2023-05-07T13:27:35;3.70;;;3.40;;
1569;SDS011;778;50.120;8.698;2023-05-07T13:30:04;4.60;;;3.73;;
1569;SDS011;778;50.120;8.698;2023-05-07T13:32:33;4.20;;;3.90;;
1569;SDS011;778;50.120;8.698;2023-05-07T13:35:02;4.23;;;3.90;;
1569;SDS011;778;50.120;8.698;2023-05-07T13:37:32;3.70;;;3.40;;
1569;SDS011;778;50.120;8.698;2023-05-07T13:40:01;3.80;;;3.60;;
1569;SDS011;778;50.120;8.698;2023-05-07T13:42:32;3.50;;;3.30;;
1569;SDS011;778;50.120;8.698;2023-05-07T13:45:01;3.40;;;3.20;;
1569;SDS011;778;50.120;8.698;2023-05-07T13:47:30;3.33;;;3.13;;
1569;SDS011;778;50.120;8.698;2023-05-07T13:49:58;3.07;;;2.87;;
1569;SDS011;778;50.120;8.698;2023-05-07T13:52:27;3.53;;;3.33;;
1569;SDS011;778;50.120;8.698;2023-05-07T13:54:55;3.20;;;3.00;;
1569;SDS011;778;50.120;8.698;2023-05-07T13:57:25;3.83;;;3.43;;
1569;SDS011;778;50.120;8.698;2023-05-07T13:59:54;3.67;;;2.93;;
1569;SDS011;778;50.120;8.698;2023-05-07T14:02:23;3.73;;;3.20;;
1569;SDS011;778;50.120;8.698;2023-05-07T14:04:52;3.67;;;3.37;;
1569;SDS011;778;50.120;8.698;2023-05-07T14:07:21;3.77;;;3.43;;
1569;SDS011;778;50.120;8.698;2023-05-07T14:09:49;3.00;;;2.80;;
1569;SDS011;778;50.120;8.698;2023-05-07T14:12:17;3.60;;;3.10;;
1569;SDS011;778;50.120;8.698;2023-05-07T14:14:46;4.13;;;3.77;;
1569;SDS011;778;50.120;8.698;2023-05-07T14:17:17;3.27;;;2.97;;
1569;SDS011;778;50.120;8.698;2023-05-07T14:19:46;3.33;;;3.13;;
1569;SDS011;778;50.120;8.698;2023-05-07T14:22:14;3.30;;;3.10;;
1569;SDS011;778;50.120;8.698;2023-05-07T14:24:43;3.50;;;3.20;;
1569;SDS011;778;50.120;8.698;2023-05-07T14:27:18;3.77;;;3.47;;
1569;SDS011;778;50.120;8.698;2023-05-07T14:29:46;4.07;;;3.77;;
1569;SDS011;778;50.120;8.698;2023-05-07T14:32:18;3.63;;;3.33;;
1569;SDS011;778;50.120;8.698;2023-05-07T14:34:47;3.73;;;3.43;;
1569;SDS011;778;50.120;8.698;2023-05-07T14:37:16;4.37;;;3.47;;
1569;SDS011;778;50.120;8.698;2023-05-07T14:39:46;3.70;;;3.50;;
1569;SDS011;778;50.120;8.698;2023-05-07T14:42:16;4.30;;;3.40;;
1569;SDS011;778;50.120;8.698;2023-05-07T14:44:45;3.87;;;3.57;;
1569;SDS011;778;50.120;8.698;2023-05-07T14:47:14;5.53;;;3.67;;
1569;SDS011;778;50.120;8.698;2023-05-07T14:49:46;3.50;;;3.30;;
1569;SDS011;778;50.120;8.698;2023-05-07T14:52:15;3.77;;;3.47;;
1569;SDS011;778;50.120;8.698;2023-05-07T14:54:43;4.07;;;3.67;;
1569;SDS011;778;50.120;8.698;2023-05-07T14:57:12;2.73;;;2.53;;
1569;SDS011;778;50.120;8.698;2023-05-07T14:59:42;4.07;;;3.70;;
1569;SDS011;778;50.120;8.698;2023-05-07T15:02:11;3.20;;;3.00;;
1569;SDS011;778;50.120;8.698;2023-05-07T15:04:40;3.63;;;3.43;;
1569;SDS011;778;50.120;8.698;2023-05-07T15:07:13;2.90;;;2.70;;
1569;SDS011;778;50.120;8.698;2023-05-07T15:09:42;4.90;;;3.57;;
1569;SDS011;778;50.120;8.698;2023-05-07T15:12:11;3.57;;;3.27;;
1569;SDS011;778;50.120;8.698;2023-05-07T15:14:40;3.60;;;3.30;;
1569;SDS011;778;50.120;8.698;2023-05-07T15:17:10;3.33;;;3.03;;
1569;SDS011;778;50.120;8.698;2023-05-07T15:19:39;3.43;;;3.23;;
1569;SDS011;778;50.120;8.698;2023-05-07T15:22:07;4.67;;;3.53;;
1569;SDS011;778;50.120;8.698;2023-05-07T15:24:37;3.33;;;2.93;;
1569;SDS011;778;50.120;8.698;2023-05-07T15:27:05;3.40;;;3.13;;
1569;SDS011;778;50.120;8.698;2023-05-07T15:29:34;3.60;;;3.40;;
1569;SDS011;778;50.120;8.698;2023-05-07T15:32:02;6.83;;;3.57;;
1569;SDS011;778;50.120;8.698;2023-05-07T15:34:31;4.00;;;3.60;;
1569;SDS011;778;50.120;8.698;2023-05-07T15:37:00;3.73;;;3.17;;
1569;SDS011;778;50.120;8.698;2023-05-07T15:39:28;3.17;;;2.87;;
1569;SDS011;778;50.120;8.698;2023-05-07T15:41:59;3.00;;;2.80;;
1569;SDS011;778;50.120;8.698;2023-05-07T15:44:29;3.63;;;3.33;;
1569;SDS011;778;50.120;8.698;2023-05-07T15:47:01;3.20;;;2.90;;
1569;SDS011;778;50.120;8.698;2023-05-07T15:49:29;3.10;;;2.90;;
1569;SDS011;778;50.120;8.698;2023-05-07T15:51:57;3.23;;;2.93;;
1569;SDS011;778;50.120;8.698;2023-05-07T15:54:26;5.03;;;3.30;;
1569;SDS011;778;50.120;8.698;2023-05-07T15:56:54;4.30;;;3.90;;